sensor_id;sensor_type;location;lat;lon;timestamp;P1;durP1;ratioP1;P2;durP2;ratioP2
80936;SDS011;70395;51.382;7.074;2024-03-08T00:01:18;27.42;;;19.38;;
80936;SDS011;70395;51.382;7.074;2024-03-08T00:03:44;26.80;;;19.50;;
80936;SDS011;70395;51.382;7.074;2024-03-08T00:06:09;23.00;;;18.43;;
80936;SDS011;70395;51.382;7.074;2024-03-08T00:08:35;28.07;;;18.93;;
80936;SDS011;70395;51.382;7.074;2024-03-08T00:11:01;25.80;;;19.23;;
80936;SDS011;70395;51.382;7.074;2024-03-08T00:13:27;22.77;;;17.70;;
80936;SDS011;70395;51.382;7.074;2024-03-08T00:15:53;22.67;;;17.87;;
80936;SDS011;70395;51.382;7.074;2024-03-08T00:18:19;26.13;;;18.73;;
80936;SDS011;70395;51.382;7.074;2024-03-08T00:20:44;24.80;;;18.37;;
80936;SDS011;70395;51.382;7.074;2024-03-08T00:23:11;26.83;;;19.70;;
80936;SDS011;70395;51.382;7.074;2024-03-08T00:25:37;21.97;;;17.63;;
80936;SDS011;70395;51.382;7.074;2024-03-08T00:28:04;27.17;;;19.75;;
80936;SDS011;70395;51.382;7.074;2024-03-08T00:30:31;22.20;;;19.00;;
80936;SDS011;70395;51.382;7.074;2024-03-08T00:32:57;24.35;;;17.63;;
80936;SDS011;70395;51.382;7.074;2024-03-08T00:35:23;25.80;;;18.53;;
80936;SDS011;70395;51.382;7.074;2024-03-08T00:37:48;25.03;;;16.83;;
80936;SDS011;70395;51.382;7.074;2024-03-08T00:40:15;26.13;;;19.15;;
80936;SDS011;70395;51.382;7.074;2024-03-08T00:42:41;28.07;;;19.67;;
80936;SDS011;70395;51.382;7.074;2024-03-08T00:45:08;25.20;;;19.65;;
80936;SDS011;70395;51.382;7.074;2024-03-08T00:47:35;22.70;;;17.95;;
80936;SDS011;70395;51.382;7.074;2024-03-08T00:50:01;21.87;;;16.97;;
80936;SDS011;70395;51.382;7.074;2024-03-08T00:52:29;24.98;;;17.30;;
80936;SDS011;70395;51.382;7.074;2024-03-08T00:54:55;24.73;;;19.17;;
80936;SDS011;70395;51.382;7.074;2024-03-08T00:57:21;25.67;;;18.58;;
80936;SDS011;70395;51.382;7.074;2024-03-08T00:59:47;24.07;;;18.67;;
80936;SDS011;70395;51.382;7.074;2024-03-08T01:02:13;24.13;;;18.95;;
80936;SDS011;70395;51.382;7.074;2024-03-08T01:04:39;22.37;;;17.87;;
80936;SDS011;70395;51.382;7.074;2024-03-08T01:07:05;23.90;;;18.67;;
80936;SDS011;70395;51.382;7.074;2024-03-08T01:09:31;25.93;;;18.93;;
80936;SDS011;70395;51.382;7.074;2024-03-08T01:11:56;22.67;;;18.00;;
80936;SDS011;70395;51.382;7.074;2024-03-08T01:14:23;26.10;;;18.10;;
80936;SDS011;70395;51.382;7.074;2024-03-08T01:16:54;25.38;;;17.98;;
80936;SDS011;70395;51.382;7.074;2024-03-08T01:19:20;21.27;;;17.20;;
80936;SDS011;70395;51.382;7.074;2024-03-08T01:21:46;25.63;;;18.77;;
80936;SDS011;70395;51.382;7.074;2024-03-08T01:24:11;25.90;;;18.10;;
80936;SDS011;70395;51.382;7.074;2024-03-08T01:26:37;24.43;;;17.30;;
80936;SDS011;70395;51.382;7.074;2024-03-08T01:29:03;26.67;;;21.23;;
80936;SDS011;70395;51.382;7.074;2024-03-08T01:31:29;27.40;;;19.53;;
80936;SDS011;70395;51.382;7.074;2024-03-08T01:33:56;29.02;;;20.00;;
80936;SDS011;70395;51.382;7.074;2024-03-08T01:36:23;22.55;;;17.13;;
80936;SDS011;70395;51.382;7.074;2024-03-08T01:38:49;23.88;;;18.08;;
80936;SDS011;70395;51.382;7.074;2024-03-08T01:41:16;27.98;;;20.83;;
80936;SDS011;70395;51.382;7.074;2024-03-08T01:43:43;24.73;;;19.02;;
80936;SDS011;70395;51.382;7.074;2024-03-08T01:46:10;28.45;;;19.40;;
80936;SDS011;70395;51.382;7.074;2024-03-08T01:48:41;28.55;;;20.15;;
80936;SDS011;70395;51.382;7.074;2024-03-08T01:51:08;27.23;;;19.77;;
80936;SDS011;70395;51.382;7.074;2024-03-08T01:53:37;31.42;;;19.85;;
80936;SDS011;70395;51.382;7.074;2024-03-08T01:56:03;26.88;;;18.83;;
80936;SDS011;70395;51.382;7.074;2024-03-08T01:58:31;32.22;;;19.23;;
80936;SDS011;70395;51.382;7.074;2024-03-08T02:00:58;29.83;;;19.30;;
80936;SDS011;70395;51.382;7.074;2024-03-08T02:03:25;25.77;;;19.55;;
80936;SDS011;70395;51.382;7.074;2024-03-08T02:05:51;29.45;;;18.83;;
80936;SDS011;70395;51.382;7.074;2024-03-08T02:08:17;29.55;;;21.13;;
80936;SDS011;70395;51.382;7.074;2024-03-08T02:10:47;26.13;;;18.23;;
80936;SDS011;70395;51.382;7.074;2024-03-08T02:13:14;28.13;;;19.67;;
80936;SDS011;70395;51.382;7.074;2024-03-08T02:15:53;23.98;;;18.40;;
80936;SDS011;70395;51.382;7.074;2024-03-08T02:18:24;27.98;;;19.15;;
80936;SDS011;70395;51.382;7.074;2024-03-08T02:20:57;27.70;;;19.27;;
80936;SDS011;70395;51.382;7.074;2024-03-08T02:23:25;28.70;;;21.35;;
80936;SDS011;70395;51.382;7.074;2024-03-08T02:25:52;28.55;;;19.75;;
80936;SDS011;70395;51.382;7.074;2024-03-08T02:28:20;29.10;;;19.95;;
80936;SDS011;70395;51.382;7.074;2024-03-08T02:30:52;28.50;;;19.88;;
80936;SDS011;70395;51.382;7.074;2024-03-08T02:33:21;27.45;;;20.67;;
80936;SDS011;70395;51.382;7.074;2024-03-08T02:35:48;29.70;;;18.77;;
80936;SDS011;70395;51.382;7.074;2024-03-08T02:38:16;29.55;;;20.23;;
80936;SDS011;70395;51.382;7.074;2024-03-08T02:40:44;26.50;;;19.42;;
80936;SDS011;70395;51.382;7.074;2024-03-08T02:43:16;28.83;;;20.70;;
80936;SDS011;70395;51.382;7.074;2024-03-08T02:45:44;26.65;;;19.85;;
80936;SDS011;70395;51.382;7.074;2024-03-08T02:48:10;27.95;;;19.92;;
80936;SDS011;70395;51.382;7.074;2024-03-08T02:50:38;28.65;;;20.35;;
80936;SDS011;70395;51.382;7.074;2024-03-08T02:53:11;29.45;;;20.13;;
80936;SDS011;70395;51.382;7.074;2024-03-08T02:55:38;29.60;;;19.10;;
80936;SDS011;70395;51.382;7.074;2024-03-08T02:58:06;32.22;;;21.08;;
80936;SDS011;70395;51.382;7.074;2024-03-08T03:00:35;27.80;;;19.95;;
80936;SDS011;70395;51.382;7.074;2024-03-08T03:03:05;35.42;;;21.60;;
80936;SDS011;70395;51.382;7.074;2024-03-08T03:05:32;24.67;;;19.42;;
80936;SDS011;70395;51.382;7.074;2024-03-08T03:07:58;29.80;;;21.30;;
80936;SDS011;70395;51.382;7.074;2024-03-08T03:10:24;29.97;;;19.77;;
80936;SDS011;70395;51.382;7.074;2024-03-08T03:12:51;29.02;;;19.90;;
80936;SDS011;70395;51.382;7.074;2024-03-08T03:15:17;24.98;;;19.90;;
80936;SDS011;70395;51.382;7.074;2024-03-08T03:17:50;27.57;;;20.80;;
80936;SDS011;70395;51.382;7.074;2024-03-08T03:20:16;26.70;;;19.00;;
80936;SDS011;70395;51.382;7.074;2024-03-08T03:22:51;31.35;;;21.30;;
80936;SDS011;70395;51.382;7.074;2024-03-08T03:25:21;31.42;;;20.33;;
80936;SDS011;70395;51.382;7.074;2024-03-08T03:27:59;25.58;;;19.73;;
80936;SDS011;70395;51.382;7.074;2024-03-08T03:30:29;25.45;;;18.83;;
80936;SDS011;70395;51.382;7.074;2024-03-08T03:32:58;26.60;;;20.02;;
80936;SDS011;70395;51.382;7.074;2024-03-08T03:35:26;38.80;;;21.75;;
80936;SDS011;70395;51.382;7.074;2024-03-08T03:37:52;30.05;;;21.02;;
80936;SDS011;70395;51.382;7.074;2024-03-08T03:40:32;28.27;;;20.35;;
80936;SDS011;70395;51.382;7.074;2024-03-08T03:42:58;28.83;;;20.17;;
80936;SDS011;70395;51.382;7.074;2024-03-08T03:45:25;28.20;;;19.90;;
80936;SDS011;70395;51.382;7.074;2024-03-08T03:47:51;25.73;;;19.25;;
80936;SDS011;70395;51.382;7.074;2024-03-08T03:50:18;31.40;;;21.73;;
80936;SDS011;70395;51.382;7.074;2024-03-08T03:52:45;33.33;;;21.33;;
80936;SDS011;70395;51.382;7.074;2024-03-08T03:55:12;31.73;;;20.15;;
80936;SDS011;70395;51.382;7.074;2024-03-08T03:57:38;33.80;;;21.98;;
80936;SDS011;70395;51.382;7.074;2024-03-08T04:00:06;32.42;;;21.98;;
80936;SDS011;70395;51.382;7.074;2024-03-08T04:02:37;32.45;;;22.63;;
80936;SDS011;70395;51.382;7.074;2024-03-08T04:05:04;31.88;;;21.65;;
80936;SDS011;70395;51.382;7.074;2024-03-08T04:07:34;35.35;;;22.23;;
80936;SDS011;70395;51.382;7.074;2024-03-08T04:10:02;36.15;;;24.20;;
80936;SDS011;70395;51.382;7.074;2024-03-08T04:12:29;34.22;;;21.45;;
80936;SDS011;70395;51.382;7.074;2024-03-08T04:14:54;30.90;;;21.07;;
80936;SDS011;70395;51.382;7.074;2024-03-08T04:17:21;30.85;;;21.40;;
80936;SDS011;70395;51.382;7.074;2024-03-08T04:19:49;30.27;;;21.08;;
80936;SDS011;70395;51.382;7.074;2024-03-08T04:22:15;31.77;;;21.23;;
80936;SDS011;70395;51.382;7.074;2024-03-08T04:24:42;31.73;;;21.02;;
80936;SDS011;70395;51.382;7.074;2024-03-08T04:27:11;31.02;;;20.75;;
80936;SDS011;70395;51.382;7.074;2024-03-08T04:29:37;34.45;;;23.00;;
80936;SDS011;70395;51.382;7.074;2024-03-08T04:32:03;33.43;;;21.90;;
80936;SDS011;70395;51.382;7.074;2024-03-08T04:34:30;31.58;;;20.45;;
80936;SDS011;70395;51.382;7.074;2024-03-08T04:36:59;30.30;;;21.52;;
80936;SDS011;70395;51.382;7.074;2024-03-08T04:39:26;32.97;;;20.40;;
80936;SDS011;70395;51.382;7.074;2024-03-08T04:41:57;33.28;;;22.33;;
80936;SDS011;70395;51.382;7.074;2024-03-08T04:44:34;30.77;;;21.38;;
80936;SDS011;70395;51.382;7.074;2024-03-08T04:47:02;28.17;;;20.27;;
80936;SDS011;70395;51.382;7.074;2024-03-08T04:49:31;33.03;;;21.60;;
80936;SDS011;70395;51.382;7.074;2024-03-08T04:52:00;34.67;;;23.27;;
80936;SDS011;70395;51.382;7.074;2024-03-08T04:54:30;35.05;;;23.05;;
80936;SDS011;70395;51.382;7.074;2024-03-08T04:56:56;35.85;;;23.98;;
80936;SDS011;70395;51.382;7.074;2024-03-08T04:59:25;34.85;;;21.13;;
80936;SDS011;70395;51.382;7.074;2024-03-08T05:01:52;33.30;;;22.80;;
80936;SDS011;70395;51.382;7.074;2024-03-08T05:04:18;34.40;;;21.25;;
80936;SDS011;70395;51.382;7.074;2024-03-08T05:06:44;32.83;;;21.40;;
80936;SDS011;70395;51.382;7.074;2024-03-08T05:09:09;36.33;;;22.27;;
80936;SDS011;70395;51.382;7.074;2024-03-08T05:11:42;38.15;;;22.42;;
80936;SDS011;70395;51.382;7.074;2024-03-08T05:14:09;32.47;;;20.25;;
80936;SDS011;70395;51.382;7.074;2024-03-08T05:16:36;38.53;;;23.25;;
80936;SDS011;70395;51.382;7.074;2024-03-08T05:19:02;33.47;;;21.40;;
80936;SDS011;70395;51.382;7.074;2024-03-08T05:21:28;34.13;;;22.95;;
80936;SDS011;70395;51.382;7.074;2024-03-08T05:23:54;33.93;;;21.27;;
80936;SDS011;70395;51.382;7.074;2024-03-08T05:26:20;34.07;;;21.80;;
80936;SDS011;70395;51.382;7.074;2024-03-08T05:28:47;35.45;;;21.45;;
80936;SDS011;70395;51.382;7.074;2024-03-08T05:31:23;39.67;;;23.20;;
80936;SDS011;70395;51.382;7.074;2024-03-08T05:33:49;39.60;;;23.65;;
80936;SDS011;70395;51.382;7.074;2024-03-08T05:36:15;32.22;;;22.40;;
80936;SDS011;70395;51.382;7.074;2024-03-08T05:38:44;33.10;;;22.08;;
80936;SDS011;70395;51.382;7.074;2024-03-08T05:41:10;33.43;;;20.17;;
80936;SDS011;70395;51.382;7.074;2024-03-08T05:43:40;34.95;;;21.75;;
80936;SDS011;70395;51.382;7.074;2024-03-08T05:46:06;34.25;;;22.13;;
80936;SDS011;70395;51.382;7.074;2024-03-08T05:48:32;29.67;;;21.20;;
80936;SDS011;70395;51.382;7.074;2024-03-08T05:50:59;32.30;;;19.80;;
80936;SDS011;70395;51.382;7.074;2024-03-08T05:53:27;37.88;;;23.40;;
80936;SDS011;70395;51.382;7.074;2024-03-08T05:55:55;35.80;;;21.70;;
80936;SDS011;70395;51.382;7.074;2024-03-08T05:58:21;34.67;;;21.70;;
80936;SDS011;70395;51.382;7.074;2024-03-08T06:00:47;45.83;;;23.80;;
80936;SDS011;70395;51.382;7.074;2024-03-08T06:03:13;36.73;;;23.53;;
80936;SDS011;70395;51.382;7.074;2024-03-08T06:05:38;40.87;;;25.93;;
80936;SDS011;70395;51.382;7.074;2024-03-08T06:08:07;38.50;;;24.98;;
80936;SDS011;70395;51.382;7.074;2024-03-08T06:10:33;37.95;;;23.95;;
80936;SDS011;70395;51.382;7.074;2024-03-08T06:12:59;35.40;;;22.80;;
80936;SDS011;70395;51.382;7.074;2024-03-08T06:15:26;34.90;;;20.25;;
80936;SDS011;70395;51.382;7.074;2024-03-08T06:17:55;36.05;;;22.30;;
80936;SDS011;70395;51.382;7.074;2024-03-08T06:20:21;38.90;;;24.33;;
80936;SDS011;70395;51.382;7.074;2024-03-08T06:22:51;36.22;;;23.02;;
80936;SDS011;70395;51.382;7.074;2024-03-08T06:25:17;34.72;;;22.70;;
80936;SDS011;70395;51.382;7.074;2024-03-08T06:27:43;36.75;;;22.35;;
80936;SDS011;70395;51.382;7.074;2024-03-08T06:30:11;38.72;;;22.58;;
80936;SDS011;70395;51.382;7.074;2024-03-08T06:32:37;37.38;;;22.58;;
80936;SDS011;70395;51.382;7.074;2024-03-08T06:35:06;33.40;;;22.17;;
80936;SDS011;70395;51.382;7.074;2024-03-08T06:37:34;32.38;;;21.55;;
80936;SDS011;70395;51.382;7.074;2024-03-08T06:40:00;36.80;;;22.00;;
80936;SDS011;70395;51.382;7.074;2024-03-08T06:42:33;35.42;;;23.50;;
80936;SDS011;70395;51.382;7.074;2024-03-08T06:45:00;40.70;;;23.42;;
80936;SDS011;70395;51.382;7.074;2024-03-08T06:47:30;35.35;;;23.30;;
80936;SDS011;70395;51.382;7.074;2024-03-08T06:49:58;29.92;;;21.13;;
80936;SDS011;70395;51.382;7.074;2024-03-08T06:52:24;30.23;;;21.03;;
80936;SDS011;70395;51.382;7.074;2024-03-08T06:54:49;31.43;;;21.70;;
80936;SDS011;70395;51.382;7.074;2024-03-08T06:57:18;30.10;;;21.77;;
80936;SDS011;70395;51.382;7.074;2024-03-08T06:59:47;35.58;;;23.33;;
80936;SDS011;70395;51.382;7.074;2024-03-08T07:02:13;32.05;;;22.35;;
80936;SDS011;70395;51.382;7.074;2024-03-08T07:04:39;31.60;;;22.60;;
80936;SDS011;70395;51.382;7.074;2024-03-08T07:07:05;35.00;;;23.23;;
80936;SDS011;70395;51.382;7.074;2024-03-08T07:09:37;32.23;;;22.70;;
80936;SDS011;70395;51.382;7.074;2024-03-08T07:12:04;28.67;;;20.60;;
80936;SDS011;70395;51.382;7.074;2024-03-08T07:14:30;31.60;;;22.23;;
80936;SDS011;70395;51.382;7.074;2024-03-08T07:16:58;31.17;;;21.77;;
80936;SDS011;70395;51.382;7.074;2024-03-08T07:19:24;32.30;;;21.10;;
80936;SDS011;70395;51.382;7.074;2024-03-08T07:21:50;30.83;;;21.60;;
80936;SDS011;70395;51.382;7.074;2024-03-08T07:24:15;29.20;;;21.27;;
80936;SDS011;70395;51.382;7.074;2024-03-08T07:26:41;29.63;;;22.50;;
80936;SDS011;70395;51.382;7.074;2024-03-08T07:29:14;31.13;;;21.93;;
80936;SDS011;70395;51.382;7.074;2024-03-08T07:31:41;23.57;;;20.93;;
80936;SDS011;70395;51.382;7.074;2024-03-08T07:34:06;29.73;;;21.57;;
80936;SDS011;70395;51.382;7.074;2024-03-08T07:36:35;26.00;;;21.13;;
80936;SDS011;70395;51.382;7.074;2024-03-08T07:39:01;31.40;;;22.20;;
80936;SDS011;70395;51.382;7.074;2024-03-08T07:41:27;30.60;;;22.07;;
80936;SDS011;70395;51.382;7.074;2024-03-08T07:43:54;25.40;;;20.80;;
80936;SDS011;70395;51.382;7.074;2024-03-08T07:46:20;26.07;;;21.80;;
80936;SDS011;70395;51.382;7.074;2024-03-08T07:48:46;28.93;;;21.07;;
80936;SDS011;70395;51.382;7.074;2024-03-08T07:51:15;22.80;;;19.90;;
80936;SDS011;70395;51.382;7.074;2024-03-08T07:53:42;30.33;;;22.23;;
80936;SDS011;70395;51.382;7.074;2024-03-08T07:56:10;27.13;;;20.37;;
80936;SDS011;70395;51.382;7.074;2024-03-08T07:58:41;24.63;;;21.87;;
80936;SDS011;70395;51.382;7.074;2024-03-08T08:01:19;25.83;;;21.00;;
80936;SDS011;70395;51.382;7.074;2024-03-08T08:03:45;26.23;;;22.40;;
80936;SDS011;70395;51.382;7.074;2024-03-08T08:06:14;25.63;;;22.10;;
80936;SDS011;70395;51.382;7.074;2024-03-08T08:08:41;24.80;;;21.50;;
80936;SDS011;70395;51.382;7.074;2024-03-08T08:11:08;27.37;;;23.00;;
80936;SDS011;70395;51.382;7.074;2024-03-08T08:13:34;24.57;;;21.97;;
80936;SDS011;70395;51.382;7.074;2024-03-08T08:16:01;27.83;;;22.27;;
80936;SDS011;70395;51.382;7.074;2024-03-08T08:18:29;25.57;;;22.80;;
80936;SDS011;70395;51.382;7.074;2024-03-08T08:21:03;25.00;;;21.77;;
80936;SDS011;70395;51.382;7.074;2024-03-08T08:23:32;28.03;;;22.20;;
80936;SDS011;70395;51.382;7.074;2024-03-08T08:25:58;25.20;;;22.27;;
80936;SDS011;70395;51.382;7.074;2024-03-08T08:28:24;24.47;;;21.60;;
80936;SDS011;70395;51.382;7.074;2024-03-08T08:30:50;25.47;;;22.77;;
80936;SDS011;70395;51.382;7.074;2024-03-08T08:33:16;24.00;;;21.50;;
80936;SDS011;70395;51.382;7.074;2024-03-08T08:35:42;25.70;;;23.00;;
80936;SDS011;70395;51.382;7.074;2024-03-08T08:38:08;23.23;;;20.93;;
80936;SDS011;70395;51.382;7.074;2024-03-08T08:40:34;25.40;;;20.43;;
80936;SDS011;70395;51.382;7.074;2024-03-08T08:43:01;26.30;;;22.63;;
80936;SDS011;70395;51.382;7.074;2024-03-08T08:45:29;22.77;;;20.40;;
80936;SDS011;70395;51.382;7.074;2024-03-08T08:47:56;24.70;;;22.20;;
80936;SDS011;70395;51.382;7.074;2024-03-08T08:50:24;24.00;;;20.93;;
80936;SDS011;70395;51.382;7.074;2024-03-08T08:52:53;25.30;;;22.70;;
80936;SDS011;70395;51.382;7.074;2024-03-08T08:55:20;29.53;;;20.90;;
80936;SDS011;70395;51.382;7.074;2024-03-08T08:57:47;23.70;;;21.13;;
80936;SDS011;70395;51.382;7.074;2024-03-08T09:00:14;24.30;;;21.70;;
80936;SDS011;70395;51.382;7.074;2024-03-08T09:02:40;25.63;;;22.97;;
80936;SDS011;70395;51.382;7.074;2024-03-08T09:05:07;25.23;;;22.60;;
80936;SDS011;70395;51.382;7.074;2024-03-08T09:07:33;25.90;;;23.20;;
80936;SDS011;70395;51.382;7.074;2024-03-08T09:10:02;24.80;;;22.30;;
80936;SDS011;70395;51.382;7.074;2024-03-08T09:12:29;23.60;;;21.23;;
80936;SDS011;70395;51.382;7.074;2024-03-08T09:14:54;24.30;;;21.93;;
80936;SDS011;70395;51.382;7.074;2024-03-08T09:17:20;24.20;;;21.80;;
80936;SDS011;70395;51.382;7.074;2024-03-08T09:19:47;22.70;;;20.33;;
80936;SDS011;70395;51.382;7.074;2024-03-08T09:22:13;23.43;;;21.07;;
80936;SDS011;70395;51.382;7.074;2024-03-08T09:24:39;23.20;;;20.90;;
80936;SDS011;70395;51.382;7.074;2024-03-08T09:27:05;26.83;;;23.30;;
80936;SDS011;70395;51.382;7.074;2024-03-08T09:29:31;24.07;;;21.57;;
80936;SDS011;70395;51.382;7.074;2024-03-08T09:31:57;23.70;;;21.20;;
80936;SDS011;70395;51.382;7.074;2024-03-08T09:34:23;23.47;;;21.07;;
80936;SDS011;70395;51.382;7.074;2024-03-08T09:36:48;22.77;;;20.57;;
80936;SDS011;70395;51.382;7.074;2024-03-08T09:39:17;24.03;;;21.53;;
80936;SDS011;70395;51.382;7.074;2024-03-08T09:41:45;22.00;;;19.80;;
80936;SDS011;70395;51.382;7.074;2024-03-08T09:44:13;21.53;;;18.73;;
80936;SDS011;70395;51.382;7.074;2024-03-08T09:46:40;23.23;;;20.93;;
80936;SDS011;70395;51.382;7.074;2024-03-08T09:49:06;22.77;;;20.47;;
80936;SDS011;70395;51.382;7.074;2024-03-08T09:51:33;22.40;;;20.20;;
80936;SDS011;70395;51.382;7.074;2024-03-08T09:54:01;22.73;;;20.53;;
80936;SDS011;70395;51.382;7.074;2024-03-08T09:56:32;22.03;;;19.80;;
80936;SDS011;70395;51.382;7.074;2024-03-08T09:59:01;22.67;;;20.47;;
80936;SDS011;70395;51.382;7.074;2024-03-08T10:01:36;19.97;;;18.17;;
80936;SDS011;70395;51.382;7.074;2024-03-08T10:04:06;21.80;;;19.60;;
80936;SDS011;70395;51.382;7.074;2024-03-08T10:06:32;23.80;;;21.30;;
80936;SDS011;70395;51.382;7.074;2024-03-08T10:08:58;22.37;;;20.30;;
80936;SDS011;70395;51.382;7.074;2024-03-08T10:11:24;21.40;;;19.13;;
80936;SDS011;70395;51.382;7.074;2024-03-08T10:13:52;22.20;;;19.90;;
80936;SDS011;70395;51.382;7.074;2024-03-08T10:16:18;21.53;;;19.57;;
80936;SDS011;70395;51.382;7.074;2024-03-08T10:18:46;22.87;;;20.67;;
80936;SDS011;70395;51.382;7.074;2024-03-08T10:21:12;21.20;;;19.03;;
80936;SDS011;70395;51.382;7.074;2024-03-08T10:23:40;22.50;;;19.97;;
80936;SDS011;70395;51.382;7.074;2024-03-08T10:28:46;20.57;;;18.53;;
80936;SDS011;70395;51.382;7.074;2024-03-08T10:31:14;22.60;;;20.50;;
80936;SDS011;70395;51.382;7.074;2024-03-08T10:33:44;21.57;;;19.47;;
80936;SDS011;70395;51.382;7.074;2024-03-08T10:36:14;20.07;;;18.00;;
80936;SDS011;70395;51.382;7.074;2024-03-08T10:38:41;22.53;;;20.33;;
80936;SDS011;70395;51.382;7.074;2024-03-08T10:41:12;23.13;;;20.73;;
80936;SDS011;70395;51.382;7.074;2024-03-08T10:46:37;21.07;;;19.13;;
80936;SDS011;70395;51.382;7.074;2024-03-08T10:49:58;19.23;;;17.43;;
80936;SDS011;70395;51.382;7.074;2024-03-08T10:52:45;21.73;;;19.70;;
80936;SDS011;70395;51.382;7.074;2024-03-08T10:55:19;19.40;;;17.60;;
80936;SDS011;70395;51.382;7.074;2024-03-08T10:57:46;18.37;;;16.50;;
80936;SDS011;70395;51.382;7.074;2024-03-08T11:00:13;17.47;;;15.90;;
80936;SDS011;70395;51.382;7.074;2024-03-08T11:02:43;17.13;;;15.43;;
80936;SDS011;70395;51.382;7.074;2024-03-08T11:05:10;16.57;;;14.73;;
80936;SDS011;70395;51.382;7.074;2024-03-08T11:07:59;15.07;;;13.63;;
80936;SDS011;70395;51.382;7.074;2024-03-08T11:10:24;17.07;;;14.10;;
80936;SDS011;70395;51.382;7.074;2024-03-08T11:12:51;16.13;;;14.63;;
80936;SDS011;70395;51.382;7.074;2024-03-08T11:15:17;16.57;;;14.97;;
80936;SDS011;70395;51.382;7.074;2024-03-08T11:17:49;16.10;;;14.60;;
80936;SDS011;70395;51.382;7.074;2024-03-08T11:20:19;14.97;;;13.57;;
80936;SDS011;70395;51.382;7.074;2024-03-08T11:22:54;15.53;;;13.77;;
80936;SDS011;70395;51.382;7.074;2024-03-08T11:28:18;14.23;;;12.90;;
80936;SDS011;70395;51.382;7.074;2024-03-08T11:33:24;14.67;;;13.23;;
80936;SDS011;70395;51.382;7.074;2024-03-08T11:38:43;13.73;;;12.50;;
80936;SDS011;70395;51.382;7.074;2024-03-08T11:41:09;13.07;;;11.77;;
80936;SDS011;70395;51.382;7.074;2024-03-08T11:43:41;13.70;;;12.47;;
80936;SDS011;70395;51.382;7.074;2024-03-08T11:46:08;12.00;;;10.90;;
80936;SDS011;70395;51.382;7.074;2024-03-08T11:48:35;14.27;;;12.97;;
80936;SDS011;70395;51.382;7.074;2024-03-08T11:51:03;13.80;;;12.60;;
80936;SDS011;70395;51.382;7.074;2024-03-08T11:53:30;13.80;;;12.50;;
80936;SDS011;70395;51.382;7.074;2024-03-08T11:56:17;13.00;;;11.80;;
80936;SDS011;70395;51.382;7.074;2024-03-08T11:58:52;13.10;;;11.80;;
80936;SDS011;70395;51.382;7.074;2024-03-08T12:01:22;11.63;;;10.50;;
80936;SDS011;70395;51.382;7.074;2024-03-08T12:03:55;13.37;;;12.13;;
80936;SDS011;70395;51.382;7.074;2024-03-08T12:06:24;11.77;;;10.57;;
80936;SDS011;70395;51.382;7.074;2024-03-08T12:08:52;13.50;;;9.97;;
80936;SDS011;70395;51.382;7.074;2024-03-08T12:11:18;11.30;;;10.30;;
80936;SDS011;70395;51.382;7.074;2024-03-08T12:13:48;10.93;;;9.87;;
80936;SDS011;70395;51.382;7.074;2024-03-08T12:16:17;11.20;;;10.07;;
80936;SDS011;70395;51.382;7.074;2024-03-08T12:18:44;12.10;;;11.00;;
80936;SDS011;70395;51.382;7.074;2024-03-08T12:21:11;10.70;;;9.70;;
80936;SDS011;70395;51.382;7.074;2024-03-08T12:23:45;12.33;;;11.03;;
80936;SDS011;70395;51.382;7.074;2024-03-08T12:26:23;12.83;;;11.73;;
80936;SDS011;70395;51.382;7.074;2024-03-08T12:28:51;11.37;;;10.30;;
80936;SDS011;70395;51.382;7.074;2024-03-08T12:31:17;12.70;;;11.50;;
80936;SDS011;70395;51.382;7.074;2024-03-08T12:33:48;11.50;;;10.40;;
80936;SDS011;70395;51.382;7.074;2024-03-08T12:36:18;12.27;;;11.07;;
80936;SDS011;70395;51.382;7.074;2024-03-08T12:38:46;11.63;;;10.43;;
80936;SDS011;70395;51.382;7.074;2024-03-08T12:41:15;11.67;;;10.57;;
80936;SDS011;70395;51.382;7.074;2024-03-08T12:43:46;11.33;;;10.20;;
80936;SDS011;70395;51.382;7.074;2024-03-08T12:48:46;10.37;;;9.37;;
80936;SDS011;70395;51.382;7.074;2024-03-08T12:51:15;10.40;;;9.40;;
80936;SDS011;70395;51.382;7.074;2024-03-08T12:53:43;9.00;;;8.10;;
80936;SDS011;70395;51.382;7.074;2024-03-08T12:56:10;8.90;;;8.00;;
80936;SDS011;70395;51.382;7.074;2024-03-08T12:58:37;8.67;;;7.87;;
80936;SDS011;70395;51.382;7.074;2024-03-08T13:01:04;11.70;;;10.50;;
80936;SDS011;70395;51.382;7.074;2024-03-08T13:03:32;10.23;;;9.23;;
80936;SDS011;70395;51.382;7.074;2024-03-08T13:06:05;10.30;;;9.30;;
80936;SDS011;70395;51.382;7.074;2024-03-08T13:08:37;11.37;;;10.37;;
80936;SDS011;70395;51.382;7.074;2024-03-08T13:11:10;11.70;;;10.60;;
80936;SDS011;70395;51.382;7.074;2024-03-08T13:13:42;10.90;;;9.73;;
80936;SDS011;70395;51.382;7.074;2024-03-08T13:16:09;9.53;;;8.60;;
80936;SDS011;70395;51.382;7.074;2024-03-08T13:18:37;10.03;;;9.13;;
80936;SDS011;70395;51.382;7.074;2024-03-08T13:21:04;11.07;;;9.87;;
80936;SDS011;70395;51.382;7.074;2024-03-08T13:23:33;9.93;;;9.03;;
80936;SDS011;70395;51.382;7.074;2024-03-08T13:26:12;10.07;;;8.97;;
80936;SDS011;70395;51.382;7.074;2024-03-08T13:28:43;9.53;;;8.60;;
80936;SDS011;70395;51.382;7.074;2024-03-08T13:31:11;10.00;;;9.00;;
80936;SDS011;70395;51.382;7.074;2024-03-08T13:33:37;11.57;;;10.50;;
80936;SDS011;70395;51.382;7.074;2024-03-08T13:36:05;10.47;;;9.53;;
80936;SDS011;70395;51.382;7.074;2024-03-08T13:38:34;10.80;;;9.80;;
80936;SDS011;70395;51.382;7.074;2024-03-08T13:41:01;9.00;;;8.20;;
80936;SDS011;70395;51.382;7.074;2024-03-08T13:43:28;10.57;;;9.57;;
80936;SDS011;70395;51.382;7.074;2024-03-08T13:45:54;10.63;;;9.00;;
80936;SDS011;70395;51.382;7.074;2024-03-08T13:48:20;9.77;;;8.87;;
80936;SDS011;70395;51.382;7.074;2024-03-08T13:50:47;10.23;;;9.23;;
80936;SDS011;70395;51.382;7.074;2024-03-08T13:53:14;9.80;;;8.80;;
80936;SDS011;70395;51.382;7.074;2024-03-08T13:55:41;10.43;;;9.43;;
80936;SDS011;70395;51.382;7.074;2024-03-08T13:58:06;10.53;;;9.50;;
80936;SDS011;70395;51.382;7.074;2024-03-08T14:00:35;10.93;;;9.83;;
80936;SDS011;70395;51.382;7.074;2024-03-08T14:03:06;9.70;;;8.73;;
80936;SDS011;70395;51.382;7.074;2024-03-08T14:05:32;10.53;;;9.50;;
80936;SDS011;70395;51.382;7.074;2024-03-08T14:08:00;10.60;;;9.60;;
80936;SDS011;70395;51.382;7.074;2024-03-08T14:10:32;11.10;;;10.10;;
80936;SDS011;70395;51.382;7.074;2024-03-08T14:12:59;10.57;;;9.63;;
80936;SDS011;70395;51.382;7.074;2024-03-08T14:15:27;9.53;;;8.70;;
80936;SDS011;70395;51.382;7.074;2024-03-08T14:17:56;10.40;;;9.40;;
80936;SDS011;70395;51.382;7.074;2024-03-08T14:20:22;10.43;;;9.43;;
80936;SDS011;70395;51.382;7.074;2024-03-08T14:22:56;12.27;;;9.70;;
80936;SDS011;70395;51.382;7.074;2024-03-08T14:25:22;11.83;;;10.57;;
80936;SDS011;70395;51.382;7.074;2024-03-08T14:27:51;11.70;;;10.60;;
80936;SDS011;70395;51.382;7.074;2024-03-08T14:30:19;10.63;;;9.63;;
80936;SDS011;70395;51.382;7.074;2024-03-08T14:32:59;13.97;;;11.87;;
80936;SDS011;70395;51.382;7.074;2024-03-08T14:35:27;11.77;;;10.20;;
80936;SDS011;70395;51.382;7.074;2024-03-08T14:37:54;12.03;;;10.83;;
80936;SDS011;70395;51.382;7.074;2024-03-08T14:40:25;12.03;;;10.93;;
80936;SDS011;70395;51.382;7.074;2024-03-08T14:42:51;12.70;;;11.37;;
80936;SDS011;70395;51.382;7.074;2024-03-08T14:45:18;12.10;;;10.90;;